sensor_id;sensor_type;location;lat;lon;timestamp;temperature;humidity
80234;DHT22;69712;42.142;24.766;2023-07-09T00:01:49;24.20;47.20
80234;DHT22;69712;42.142;24.766;2023-07-09T00:04:16;24.20;47.00
80234;DHT22;69712;42.142;24.766;2023-07-09T00:06:42;24.10;47.00
80234;DHT22;69712;42.142;24.766;2023-07-09T00:09:19;24.00;47.40
80234;DHT22;69712;42.142;24.766;2023-07-09T00:11:45;23.90;47.60
80234;DHT22;69712;42.142;24.766;2023-07-09T00:14:12;23.80;47.90
80234;DHT22;69712;42.142;24.766;2023-07-09T00:20:21;23.70;48.00
80234;DHT22;69712;42.142;24.766;2023-07-09T00:22:59;23.80;47.50
80234;DHT22;69712;42.142;24.766;2023-07-09T00:25:25;23.80;47.60
80234;DHT22;69712;42.142;24.766;2023-07-09T00:27:51;23.70;47.40
80234;DHT22;69712;42.142;24.766;2023-07-09T00:30:21;23.60;47.30
80234;DHT22;69712;42.142;24.766;2023-07-09T00:32:50;23.60;47.30
80234;DHT22;69712;42.142;24.766;2023-07-09T00:35:18;23.60;47.40
80234;DHT22;69712;42.142;24.766;2023-07-09T00:37:45;23.50;47.40
80234;DHT22;69712;42.142;24.766;2023-07-09T00:40:21;23.50;47.20
80234;DHT22;69712;42.142;24.766;2023-07-09T00:42:49;23.50;46.90
80234;DHT22;69712;42.142;24.766;2023-07-09T00:45:22;23.60;47.00
80234;DHT22;69712;42.142;24.766;2023-07-09T00:47:49;23.60;46.70
80234;DHT22;69712;42.142;24.766;2023-07-09T00:50:24;23.50;46.80
80234;DHT22;69712;42.142;24.766;2023-07-09T00:52:59;23.50;46.80
80234;DHT22;69712;42.142;24.766;2023-07-09T00:55:31;23.50;46.60
80234;DHT22;69712;42.142;24.766;2023-07-09T00:58:05;23.50;46.40
80234;DHT22;69712;42.142;24.766;2023-07-09T01:00:36;23.60;46.30
80234;DHT22;69712;42.142;24.766;2023-07-09T01:03:20;23.60;46.00
80234;DHT22;69712;42.142;24.766;2023-07-09T01:05:47;23.70;45.80
80234;DHT22;69712;42.142;24.766;2023-07-09T01:08:18;23.70;45.50
80234;DHT22;69712;42.142;24.766;2023-07-09T01:10:45;23.70;45.60
80234;DHT22;69712;42.142;24.766;2023-07-09T01:13:10;23.70;45.70
80234;DHT22;69712;42.142;24.766;2023-07-09T01:15:37;23.70;45.10
80234;DHT22;69712;42.142;24.766;2023-07-09T01:18:04;23.80;45.20
80234;DHT22;69712;42.142;24.766;2023-07-09T01:20:31;23.70;45.00
80234;DHT22;69712;42.142;24.766;2023-07-09T01:23:00;23.60;45.40
80234;DHT22;69712;42.142;24.766;2023-07-09T01:25:26;23.60;45.60
80234;DHT22;69712;42.142;24.766;2023-07-09T01:27:54;23.60;45.40
80234;DHT22;69712;42.142;24.766;2023-07-09T01:32:48;23.40;45.80
80234;DHT22;69712;42.142;24.766;2023-07-09T01:35:17;23.60;45.50
80234;DHT22;69712;42.142;24.766;2023-07-09T01:37:44;23.60;45.20
80234;DHT22;69712;42.142;24.766;2023-07-09T01:40:13;23.60;45.60
80234;DHT22;69712;42.142;24.766;2023-07-09T01:42:39;23.50;45.50
80234;DHT22;69712;42.142;24.766;2023-07-09T01:45:06;23.50;45.80
80234;DHT22;69712;42.142;24.766;2023-07-09T01:47:32;23.40;45.60
80234;DHT22;69712;42.142;24.766;2023-07-09T01:49:58;23.40;45.60
80234;DHT22;69712;42.142;24.766;2023-07-09T01:52:29;23.50;45.30
80234;DHT22;69712;42.142;24.766;2023-07-09T01:54:56;23.50;45.20
80234;DHT22;69712;42.142;24.766;2023-07-09T01:57:28;23.60;45.00
80234;DHT22;69712;42.142;24.766;2023-07-09T02:00:03;23.60;44.80
80234;DHT22;69712;42.142;24.766;2023-07-09T02:02:30;23.60;45.10
80234;DHT22;69712;42.142;24.766;2023-07-09T02:04:58;23.50;44.70
80234;DHT22;69712;42.142;24.766;2023-07-09T02:07:25;23.60;44.50
80234;DHT22;69712;42.142;24.766;2023-07-09T02:09:56;23.60;44.40
80234;DHT22;69712;42.142;24.766;2023-07-09T02:12:22;23.50;44.40
80234;DHT22;69712;42.142;24.766;2023-07-09T02:14:48;23.60;44.60
80234;DHT22;69712;42.142;24.766;2023-07-09T02:17:15;23.50;44.40
80234;DHT22;69712;42.142;24.766;2023-07-09T02:19:41;23.60;44.60
80234;DHT22;69712;42.142;24.766;2023-07-09T02:22:07;23.50;44.50
80234;DHT22;69712;42.142;24.766;2023-07-09T02:24:33;23.40;44.90
80234;DHT22;69712;42.142;24.766;2023-07-09T02:27:00;23.40;44.80
80234;DHT22;69712;42.142;24.766;2023-07-09T02:29:28;23.40;45.00
80234;DHT22;69712;42.142;24.766;2023-07-09T02:31:56;23.40;44.70
80234;DHT22;69712;42.142;24.766;2023-07-09T02:34:22;23.30;44.60
80234;DHT22;69712;42.142;24.766;2023-07-09T02:36:52;23.20;45.00
80234;DHT22;69712;42.142;24.766;2023-07-09T02:39:18;23.20;45.00
80234;DHT22;69712;42.142;24.766;2023-07-09T02:41:45;23.20;45.40
80234;DHT22;69712;42.142;24.766;2023-07-09T02:44:11;23.10;44.70
80234;DHT22;69712;42.142;24.766;2023-07-09T02:46:36;23.20;45.00
80234;DHT22;69712;42.142;24.766;2023-07-09T02:49:06;23.20;44.60
80234;DHT22;69712;42.142;24.766;2023-07-09T02:51:32;23.20;45.00
80234;DHT22;69712;42.142;24.766;2023-07-09T02:54:00;23.10;44.90
80234;DHT22;69712;42.142;24.766;2023-07-09T02:56:26;23.10;44.80
80234;DHT22;69712;42.142;24.766;2023-07-09T02:58:52;23.10;45.00
80234;DHT22;69712;42.142;24.766;2023-07-09T03:01:18;23.10;45.00
80234;DHT22;69712;42.142;24.766;2023-07-09T03:03:51;23.10;45.00
80234;DHT22;69712;42.142;24.766;2023-07-09T03:06:20;23.10;44.90
80234;DHT22;69712;42.142;24.766;2023-07-09T03:08:45;23.10;45.60
80234;DHT22;69712;42.142;24.766;2023-07-09T03:11:13;23.10;44.70
80234;DHT22;69712;42.142;24.766;2023-07-09T03:13:39;23.00;44.60
80234;DHT22;69712;42.142;24.766;2023-07-09T03:16:04;23.00;44.80
80234;DHT22;69712;42.142;24.766;2023-07-09T03:18:30;23.00;45.10
80234;DHT22;69712;42.142;24.766;2023-07-09T03:20:56;23.00;45.00
80234;DHT22;69712;42.142;24.766;2023-07-09T03:23:22;23.00;45.10
80234;DHT22;69712;42.142;24.766;2023-07-09T03:25:48;22.90;44.90
80234;DHT22;69712;42.142;24.766;2023-07-09T03:28:14;23.00;45.10
80234;DHT22;69712;42.142;24.766;2023-07-09T03:30:45;23.00;45.10
80234;DHT22;69712;42.142;24.766;2023-07-09T03:33:12;23.00;44.90
80234;DHT22;69712;42.142;24.766;2023-07-09T03:35:39;23.10;45.10
80234;DHT22;69712;42.142;24.766;2023-07-09T03:38:05;23.10;44.70
80234;DHT22;69712;42.142;24.766;2023-07-09T03:40:32;23.00;45.10
80234;DHT22;69712;42.142;24.766;2023-07-09T03:42:58;23.00;45.00
80234;DHT22;69712;42.142;24.766;2023-07-09T03:45:24;23.10;45.00
80234;DHT22;69712;42.142;24.766;2023-07-09T03:47:50;23.10;45.00
80234;DHT22;69712;42.142;24.766;2023-07-09T03:50:15;23.20;44.60
80234;DHT22;69712;42.142;24.766;2023-07-09T03:52:41;23.10;44.50
80234;DHT22;69712;42.142;24.766;2023-07-09T03:55:07;23.10;44.60
80234;DHT22;69712;42.142;24.766;2023-07-09T03:57:35;23.20;44.80
80234;DHT22;69712;42.142;24.766;2023-07-09T04:00:02;23.30;44.30
80234;DHT22;69712;42.142;24.766;2023-07-09T04:02:28;23.40;44.10
80234;DHT22;69712;42.142;24.766;2023-07-09T04:04:53;23.40;44.20
80234;DHT22;69712;42.142;24.766;2023-07-09T04:07:20;23.30;44.20
80234;DHT22;69712;42.142;24.766;2023-07-09T04:09:45;23.30;44.20
80234;DHT22;69712;42.142;24.766;2023-07-09T04:12:11;23.40;44.40
80234;DHT22;69712;42.142;24.766;2023-07-09T04:14:37;23.30;44.50
80234;DHT22;69712;42.142;24.766;2023-07-09T04:17:03;23.20;44.00
80234;DHT22;69712;42.142;24.766;2023-07-09T04:19:29;23.30;44.30
80234;DHT22;69712;42.142;24.766;2023-07-09T04:21:55;23.40;44.40
80234;DHT22;69712;42.142;24.766;2023-07-09T04:24:20;23.50;43.90
80234;DHT22;69712;42.142;24.766;2023-07-09T04:26:47;23.60;43.40
80234;DHT22;69712;42.142;24.766;2023-07-09T04:29:13;23.70;43.40
80234;DHT22;69712;42.142;24.766;2023-07-09T04:31:40;23.60;43.20
80234;DHT22;69712;42.142;24.766;2023-07-09T04:34:07;23.50;43.60
80234;DHT22;69712;42.142;24.766;2023-07-09T04:36:33;23.50;43.50
80234;DHT22;69712;42.142;24.766;2023-07-09T04:38:59;23.50;43.10
80234;DHT22;69712;42.142;24.766;2023-07-09T04:41:25;23.70;43.20
80234;DHT22;69712;42.142;24.766;2023-07-09T04:43:51;23.80;43.10
80234;DHT22;69712;42.142;24.766;2023-07-09T04:46:16;23.80;43.00
80234;DHT22;69712;42.142;24.766;2023-07-09T04:48:42;23.90;42.90
80234;DHT22;69712;42.142;24.766;2023-07-09T04:51:08;23.80;42.90
80234;DHT22;69712;42.142;24.766;2023-07-09T04:53:34;23.80;42.90
80234;DHT22;69712;42.142;24.766;2023-07-09T04:56:00;23.90;42.80
80234;DHT22;69712;42.142;24.766;2023-07-09T04:58:28;24.00;42.80
80234;DHT22;69712;42.142;24.766;2023-07-09T05:00:57;24.00;42.80
80234;DHT22;69712;42.142;24.766;2023-07-09T05:03:23;23.90;42.60
80234;DHT22;69712;42.142;24.766;2023-07-09T05:05:48;24.00;42.80
80234;DHT22;69712;42.142;24.766;2023-07-09T05:08:15;24.00;42.30
80234;DHT22;69712;42.142;24.766;2023-07-09T05:10:46;24.10;42.30
80234;DHT22;69712;42.142;24.766;2023-07-09T05:13:13;24.10;42.50
80234;DHT22;69712;42.142;24.766;2023-07-09T05:15:44;24.10;41.90
80234;DHT22;69712;42.142;24.766;2023-07-09T05:18:11;24.20;41.90
80234;DHT22;69712;42.142;24.766;2023-07-09T05:20:37;24.20;42.20
80234;DHT22;69712;42.142;24.766;2023-07-09T05:23:03;24.20;42.10
80234;DHT22;69712;42.142;24.766;2023-07-09T05:25:29;24.20;42.10
80234;DHT22;69712;42.142;24.766;2023-07-09T05:27:54;24.20;42.00
80234;DHT22;69712;42.142;24.766;2023-07-09T05:30:20;24.20;42.00
80234;DHT22;69712;42.142;24.766;2023-07-09T05:32:46;24.20;41.50
80234;DHT22;69712;42.142;24.766;2023-07-09T05:35:13;24.30;41.30
80234;DHT22;69712;42.142;24.766;2023-07-09T05:37:39;24.50;41.30
80234;DHT22;69712;42.142;24.766;2023-07-09T05:40:08;24.50;41.10
80234;DHT22;69712;42.142;24.766;2023-07-09T05:42:34;24.60;40.90
80234;DHT22;69712;42.142;24.766;2023-07-09T05:45:00;24.70;40.70
80234;DHT22;69712;42.142;24.766;2023-07-09T05:47:26;24.80;40.00
80234;DHT22;69712;42.142;24.766;2023-07-09T05:49:52;24.90;40.00
80234;DHT22;69712;42.142;24.766;2023-07-09T05:52:20;25.00;39.90
80234;DHT22;69712;42.142;24.766;2023-07-09T05:54:48;25.00;40.00
80234;DHT22;69712;42.142;24.766;2023-07-09T05:57:13;25.00;39.80
80234;DHT22;69712;42.142;24.766;2023-07-09T05:59:39;25.20;39.70
80234;DHT22;69712;42.142;24.766;2023-07-09T06:02:11;25.30;39.50
80234;DHT22;69712;42.142;24.766;2023-07-09T06:04:37;25.40;39.10
80234;DHT22;69712;42.142;24.766;2023-07-09T06:07:03;25.50;38.60
80234;DHT22;69712;42.142;24.766;2023-07-09T06:09:29;25.50;38.70
80234;DHT22;69712;42.142;24.766;2023-07-09T06:11:56;25.50;38.60
80234;DHT22;69712;42.142;24.766;2023-07-09T06:14:22;25.50;38.50
80234;DHT22;69712;42.142;24.766;2023-07-09T06:16:47;25.50;38.00
80234;DHT22;69712;42.142;24.766;2023-07-09T06:19:13;25.60;38.20
80234;DHT22;69712;42.142;24.766;2023-07-09T06:21:39;25.60;38.40
80234;DHT22;69712;42.142;24.766;2023-07-09T06:24:06;25.70;38.20
80234;DHT22;69712;42.142;24.766;2023-07-09T06:26:32;25.90;37.60
80234;DHT22;69712;42.142;24.766;2023-07-09T06:28:58;26.00;38.00
80234;DHT22;69712;42.142;24.766;2023-07-09T06:31:24;26.50;37.80
80234;DHT22;69712;42.142;24.766;2023-07-09T06:33:50;27.20;36.70
80234;DHT22;69712;42.142;24.766;2023-07-09T06:36:18;27.40;35.80
80234;DHT22;69712;42.142;24.766;2023-07-09T06:38:44;27.90;35.10
80234;DHT22;69712;42.142;24.766;2023-07-09T06:41:11;27.90;34.60
80234;DHT22;69712;42.142;24.766;2023-07-09T06:43:36;29.60;34.00
80234;DHT22;69712;42.142;24.766;2023-07-09T06:46:05;30.60;30.90
80234;DHT22;69712;42.142;24.766;2023-07-09T06:48:32;30.90;30.10
80234;DHT22;69712;42.142;24.766;2023-07-09T06:50:59;31.10;30.00
80234;DHT22;69712;42.142;24.766;2023-07-09T06:53:26;31.90;29.20
80234;DHT22;69712;42.142;24.766;2023-07-09T06:55:52;31.50;29.60
80234;DHT22;69712;42.142;24.766;2023-07-09T06:58:21;32.20;28.70
80234;DHT22;69712;42.142;24.766;2023-07-09T07:00:49;34.50;26.80
80234;DHT22;69712;42.142;24.766;2023-07-09T07:03:15;36.60;25.30
80234;DHT22;69712;42.142;24.766;2023-07-09T07:05:49;38.20;23.80
80234;DHT22;69712;42.142;24.766;2023-07-09T07:08:17;38.20;23.10
80234;DHT22;69712;42.142;24.766;2023-07-09T07:11:04;37.50;23.20
80234;DHT22;69712;42.142;24.766;2023-07-09T07:13:36;36.00;24.50
80234;DHT22;69712;42.142;24.766;2023-07-09T07:16:12;38.10;23.40
80234;DHT22;69712;42.142;24.766;2023-07-09T07:18:38;38.10;23.90
80234;DHT22;69712;42.142;24.766;2023-07-09T07:21:20;38.10;22.50
80234;DHT22;69712;42.142;24.766;2023-07-09T07:23:47;39.30;22.10
80234;DHT22;69712;42.142;24.766;2023-07-09T07:26:13;39.30;22.30
80234;DHT22;69712;42.142;24.766;2023-07-09T07:28:39;39.50;22.10
80234;DHT22;69712;42.142;24.766;2023-07-09T07:31:08;39.60;22.00
80234;DHT22;69712;42.142;24.766;2023-07-09T07:33:34;38.50;22.50
80234;DHT22;69712;42.142;24.766;2023-07-09T07:36:00;37.70;23.00
80234;DHT22;69712;42.142;24.766;2023-07-09T07:38:25;38.50;22.50
80234;DHT22;69712;42.142;24.766;2023-07-09T07:40:51;39.20;22.00
80234;DHT22;69712;42.142;24.766;2023-07-09T07:43:17;40.50;21.00
80234;DHT22;69712;42.142;24.766;2023-07-09T07:45:43;39.00;21.80
80234;DHT22;69712;42.142;24.766;2023-07-09T07:48:10;39.30;22.30
80234;DHT22;69712;42.142;24.766;2023-07-09T07:50:35;38.60;22.40
80234;DHT22;69712;42.142;24.766;2023-07-09T07:53:02;39.00;22.20
80234;DHT22;69712;42.142;24.766;2023-07-09T07:55:27;39.60;21.00
80234;DHT22;69712;42.142;24.766;2023-07-09T07:57:53;40.10;20.60
80234;DHT22;69712;42.142;24.766;2023-07-09T08:00:19;39.90;20.70
80234;DHT22;69712;42.142;24.766;2023-07-09T08:02:45;40.00;20.50
80234;DHT22;69712;42.142;24.766;2023-07-09T08:05:11;40.70;20.80
80234;DHT22;69712;42.142;24.766;2023-07-09T08:07:36;39.70;20.30
80234;DHT22;69712;42.142;24.766;2023-07-09T08:10:02;40.30;20.60
80234;DHT22;69712;42.142;24.766;2023-07-09T08:12:28;39.20;21.00
80234;DHT22;69712;42.142;24.766;2023-07-09T08:14:54;39.10;21.50
80234;DHT22;69712;42.142;24.766;2023-07-09T08:17:19;39.10;21.50
80234;DHT22;69712;42.142;24.766;2023-07-09T08:19:47;39.30;21.50
80234;DHT22;69712;42.142;24.766;2023-07-09T08:22:14;39.90;20.10
80234;DHT22;69712;42.142;24.766;2023-07-09T08:24:40;39.10;20.80
80234;DHT22;69712;42.142;24.766;2023-07-09T08:27:07;40.20;20.50
80234;DHT22;69712;42.142;24.766;2023-07-09T08:29:33;40.10;20.50
80234;DHT22;69712;42.142;24.766;2023-07-09T08:31:58;40.80;19.90
80234;DHT22;69712;42.142;24.766;2023-07-09T08:34:24;39.80;20.40
80234;DHT22;69712;42.142;24.766;2023-07-09T08:36:50;39.90;20.90
80234;DHT22;69712;42.142;24.766;2023-07-09T08:39:16;40.00;19.90
80234;DHT22;69712;42.142;24.766;2023-07-09T08:41:59;40.20;19.70
80234;DHT22;69712;42.142;24.766;2023-07-09T08:50:02;40.90;19.20
80234;DHT22;69712;42.142;24.766;2023-07-09T08:52:34;42.10;19.30
80234;DHT22;69712;42.142;24.766;2023-07-09T08:55:22;42.20;17.70
80234;DHT22;69712;42.142;24.766;2023-07-09T08:58:10;41.10;19.50
80234;DHT22;69712;42.142;24.766;2023-07-09T09:03:55;42.30;18.10
80234;DHT22;69712;42.142;24.766;2023-07-09T09:06:29;43.00;17.90
80234;DHT22;69712;42.142;24.766;2023-07-09T09:11:33;42.70;17.10
80234;DHT22;69712;42.142;24.766;2023-07-09T09:14:07;42.50;17.20
80234;DHT22;69712;42.142;24.766;2023-07-09T09:16:38;42.00;19.10
80234;DHT22;69712;42.142;24.766;2023-07-09T09:19:18;41.30;17.90
80234;DHT22;69712;42.142;24.766;2023-07-09T09:21:46;42.30;17.50
80234;DHT22;69712;42.142;24.766;2023-07-09T09:24:19;42.80;18.80
80234;DHT22;69712;42.142;24.766;2023-07-09T09:26:48;41.60;18.00
80234;DHT22;69712;42.142;24.766;2023-07-09T09:29:16;42.30;18.10
80234;DHT22;69712;42.142;24.766;2023-07-09T09:31:49;43.30;17.30
80234;DHT22;69712;42.142;24.766;2023-07-09T09:34:28;43.70;17.90
80234;DHT22;69712;42.142;24.766;2023-07-09T09:36:55;43.60;17.20
80234;DHT22;69712;42.142;24.766;2023-07-09T09:39:25;42.20;18.10
80234;DHT22;69712;42.142;24.766;2023-07-09T09:41:55;41.10;19.20
80234;DHT22;69712;42.142;24.766;2023-07-09T09:44:27;42.40;17.80
80234;DHT22;69712;42.142;24.766;2023-07-09T09:46:56;43.50;16.80
80234;DHT22;69712;42.142;24.766;2023-07-09T09:49:21;43.50;16.40
80234;DHT22;69712;42.142;24.766;2023-07-09T09:51:48;43.00;17.40
80234;DHT22;69712;42.142;24.766;2023-07-09T09:54:24;41.60;18.20
80234;DHT22;69712;42.142;24.766;2023-07-09T09:56:53;41.10;18.70
80234;DHT22;69712;42.142;24.766;2023-07-09T09:59:30;40.30;18.00
80234;DHT22;69712;42.142;24.766;2023-07-09T10:02:00;40.20;17.30
80234;DHT22;69712;42.142;24.766;2023-07-09T10:04:27;41.40;17.10
80234;DHT22;69712;42.142;24.766;2023-07-09T10:06:56;42.40;16.50
80234;DHT22;69712;42.142;24.766;2023-07-09T10:15:11;42.90;16.20
80234;DHT22;69712;42.142;24.766;2023-07-09T10:23:27;41.20;17.50
80234;DHT22;69712;42.142;24.766;2023-07-09T10:26:24;40.80;18.60
80234;DHT22;69712;42.142;24.766;2023-07-09T10:31:37;40.50;19.00
80234;DHT22;69712;42.142;24.766;2023-07-09T10:34:29;39.30;20.00
80234;DHT22;69712;42.142;24.766;2023-07-09T10:37:26;39.70;18.90
80234;DHT22;69712;42.142;24.766;2023-07-09T10:39:58;40.00;18.50
80234;DHT22;69712;42.142;24.766;2023-07-09T10:42:28;40.30;18.40
80234;DHT22;69712;42.142;24.766;2023-07-09T10:44:58;40.50;17.70
80234;DHT22;69712;42.142;24.766;2023-07-09T10:50:46;42.00;17.00
80234;DHT22;69712;42.142;24.766;2023-07-09T10:53:24;42.50;16.40
80234;DHT22;69712;42.142;24.766;2023-07-09T10:56:10;42.20;17.30
80234;DHT22;69712;42.142;24.766;2023-07-09T10:59:29;43.40;16.30
80234;DHT22;69712;42.142;24.766;2023-07-09T11:01:54;43.50;15.80
80234;DHT22;69712;42.142;24.766;2023-07-09T11:04:29;44.10;15.80
80234;DHT22;69712;42.142;24.766;2023-07-09T11:07:00;43.50;16.80
80234;DHT22;69712;42.142;24.766;2023-07-09T11:09:30;43.00;16.60
80234;DHT22;69712;42.142;24.766;2023-07-09T11:15:13;42.60;16.40
80234;DHT22;69712;42.142;24.766;2023-07-09T11:17:44;41.60;17.80
80234;DHT22;69712;42.142;24.766;2023-07-09T11:20:21;39.70;19.90
80234;DHT22;69712;42.142;24.766;2023-07-09T11:23:03;39.50;18.70
80234;DHT22;69712;42.142;24.766;2023-07-09T11:25:48;40.30;17.40
80234;DHT22;69712;42.142;24.766;2023-07-09T11:28:15;39.60;18.60
80234;DHT22;69712;42.142;24.766;2023-07-09T11:33:18;40.10;17.60
80234;DHT22;69712;42.142;24.766;2023-07-09T11:35:49;41.20;17.30
80234;DHT22;69712;42.142;24.766;2023-07-09T11:38:21;41.70;17.10
80234;DHT22;69712;42.142;24.766;2023-07-09T11:40:51;42.70;16.10
80234;DHT22;69712;42.142;24.766;2023-07-09T11:43:47;42.80;16.20
80234;DHT22;69712;42.142;24.766;2023-07-09T11:46:18;42.00;17.10
80234;DHT22;69712;42.142;24.766;2023-07-09T11:48:45;39.50;19.20
80234;DHT22;69712;42.142;24.766;2023-07-09T11:51:16;39.80;19.30
80234;DHT22;69712;42.142;24.766;2023-07-09T11:53:53;40.10;17.50
80234;DHT22;69712;42.142;24.766;2023-07-09T11:56:24;41.70;16.90
80234;DHT22;69712;42.142;24.766;2023-07-09T11:58:54;42.00;16.50
80234;DHT22;69712;42.142;24.766;2023-07-09T12:01:22;42.60;16.30
80234;DHT22;69712;42.142;24.766;2023-07-09T12:03:48;42.80;16.50
80234;DHT22;69712;42.142;24.766;2023-07-09T12:06:32;42.20;17.40
80234;DHT22;69712;42.142;24.766;2023-07-09T12:08:58;41.70;17.50
80234;DHT22;69712;42.142;24.766;2023-07-09T12:11:31;42.00;17.40
80234;DHT22;69712;42.142;24.766;2023-07-09T12:14:05;40.80;18.00
80234;DHT22;69712;42.142;24.766;2023-07-09T12:16:39;41.20;17.60
80234;DHT22;69712;42.142;24.766;2023-07-09T12:19:06;41.80;16.80
80234;DHT22;69712;42.142;24.766;2023-07-09T12:21:37;40.20;17.80
80234;DHT22;69712;42.142;24.766;2023-07-09T12:24:13;38.50;19.40
80234;DHT22;69712;42.142;24.766;2023-07-09T12:26:41;38.20;19.50
80234;DHT22;69712;42.142;24.766;2023-07-09T12:29:09;37.50;20.10
80234;DHT22;69712;42.142;24.766;2023-07-09T12:31:35;36.30;21.20
80234;DHT22;69712;42.142;24.766;2023-07-09T12:34:01;35.90;21.90
80234;DHT22;69712;42.142;24.766;2023-07-09T12:36:28;36.00;22.00
80234;DHT22;69712;42.142;24.766;2023-07-09T12:38:59;36.20;21.40
80234;DHT22;69712;42.142;24.766;2023-07-09T12:41:35;37.10;20.60
80234;DHT22;69712;42.142;24.766;2023-07-09T12:44:03;38.00;20.40
80234;DHT22;69712;42.142;24.766;2023-07-09T12:46:29;38.40;20.00
80234;DHT22;69712;42.142;24.766;2023-07-09T12:48:55;38.50;19.80
80234;DHT22;69712;42.142;24.766;2023-07-09T12:51:25;39.70;19.40
80234;DHT22;69712;42.142;24.766;2023-07-09T12:54:05;39.50;19.60
80234;DHT22;69712;42.142;24.766;2023-07-09T12:56:37;40.90;18.30
80234;DHT22;69712;42.142;24.766;2023-07-09T12:59:21;40.80;18.20
80234;DHT22;69712;42.142;24.766;2023-07-09T13:02:19;40.80;18.70
80234;DHT22;69712;42.142;24.766;2023-07-09T13:04:46;41.10;18.20
80234;DHT22;69712;42.142;24.766;2023-07-09T13:09:52;41.80;18.10
80234;DHT22;69712;42.142;24.766;2023-07-09T13:12:19;41.80;18.10
80234;DHT22;69712;42.142;24.766;2023-07-09T13:14:55;41.50;18.00
80234;DHT22;69712;42.142;24.766;2023-07-09T13:17:21;40.90;18.70
80234;DHT22;69712;42.142;24.766;2023-07-09T13:19:47;39.90;19.20
80234;DHT22;69712;42.142;24.766;2023-07-09T13:22:15;40.60;18.60
80234;DHT22;69712;42.142;24.766;2023-07-09T13:24:41;41.40;18.10
80234;DHT22;69712;42.142;24.766;2023-07-09T13:27:12;41.30;18.00
80234;DHT22;69712;42.142;24.766;2023-07-09T13:29:37;41.40;18.00
80234;DHT22;69712;42.142;24.766;2023-07-09T13:32:15;41.30;18.10
80234;DHT22;69712;42.142;24.766;2023-07-09T13:34:41;40.60;18.10
80234;DHT22;69712;42.142;24.766;2023-07-09T13:37:15;42.40;17.30
80234;DHT22;69712;42.142;24.766;2023-07-09T13:39:41;42.70;16.90
80234;DHT22;69712;42.142;24.766;2023-07-09T13:42:13;42.00;17.40
80234;DHT22;69712;42.142;24.766;2023-07-09T13:44:40;41.30;18.10
80234;DHT22;69712;42.142;24.766;2023-07-09T13:47:18;41.40;18.10
80234;DHT22;69712;42.142;24.766;2023-07-09T13:49:45;41.10;18.40
80234;DHT22;69712;42.142;24.766;2023-07-09T13:52:21;40.40;19.10
80234;DHT22;69712;42.142;24.766;2023-07-09T13:54:49;39.40;19.60
80234;DHT22;69712;42.142;24.766;2023-07-09T13:57:18;38.30;20.30
80234;DHT22;69712;42.142;24.766;2023-07-09T13:59:45;36.70;21.30
80234;DHT22;69712;42.142;24.766;2023-07-09T14:02:31;35.90;22.70
80234;DHT22;69712;42.142;24.766;2023-07-09T14:04:59;35.50;23.30
80234;DHT22;69712;42.142;24.766;2023-07-09T14:07:33;34.90;23.30
80234;DHT22;69712;42.142;24.766;2023-07-09T14:10:00;34.60;23.20
80234;DHT22;69712;42.142;24.766;2023-07-09T14:12:27;34.60;24.60
80234;DHT22;69712;42.142;24.766;2023-07-09T14:14:54;34.50;23.60
80234;DHT22;69712;42.142;24.766;2023-07-09T14:17:21;34.40;23.50
80234;DHT22;69712;42.142;24.766;2023-07-09T14:19:48;34.40;23.80
80234;DHT22;69712;42.142;24.766;2023-07-09T14:22:33;34.30;23.90
80234;DHT22;69712;42.142;24.766;2023-07-09T14:25:00;34.30;24.40
80234;DHT22;69712;42.142;24.766;2023-07-09T14:27:27;34.10;24.80
80234;DHT22;69712;42.142;24.766;2023-07-09T14:29:54;33.80;24.10
80234;DHT22;69712;42.142;24.766;2023-07-09T14:32:38;33.50;24.20
80234;DHT22;69712;42.142;24.766;2023-07-09T14:35:17;33.50;24.30
80234;DHT22;69712;42.142;24.766;2023-07-09T14:37:44;33.50;24.70
80234;DHT22;69712;42.142;24.766;2023-07-09T14:40:10;33.50;24.80
80234;DHT22;69712;42.142;24.766;2023-07-09T14:42:37;33.50;24.50
80234;DHT22;69712;42.142;24.766;2023-07-09T14:45:05;33.50;24.80
80234;DHT22;69712;42.142;24.766;2023-07-09T14:47:31;33.50;25.00
80234;DHT22;69712;42.142;24.766;2023-07-09T14:49:57;33.50;25.60
80234;DHT22;69712;42.142;24.766;2023-07-09T14:52:23;33.50;25.20
80234;DHT22;69712;42.142;24.766;2023-07-09T14:54:49;33.40;26.00
80234;DHT22;69712;42.142;24.766;2023-07-09T14:57:26;33.10;25.40
80234;DHT22;69712;42.142;24.766;2023-07-09T14:59:53;33.10;25.10
80234;DHT22;69712;42.142;24.766;2023-07-09T15:04:47;33.20;24.90
80234;DHT22;69712;42.142;24.766;2023-07-09T15:07:14;33.20;26.20
80234;DHT22;69712;42.142;24.766;2023-07-09T15:09:39;33.20;25.00
80234;DHT22;69712;42.142;24.766;2023-07-09T15:12:15;33.20;25.20
80234;DHT22;69712;42.142;24.766;2023-07-09T15:14:41;33.00;25.40
80234;DHT22;69712;42.142;24.766;2023-07-09T15:17:12;32.90;25.60
80234;DHT22;69712;42.142;24.766;2023-07-09T15:19:38;32.90;25.40
80234;DHT22;69712;42.142;24.766;2023-07-09T15:22:05;32.90;25.30
80234;DHT22;69712;42.142;24.766;2023-07-09T15:24:35;32.90;25.90
80234;DHT22;69712;42.142;24.766;2023-07-09T15:27:01;32.80;25.80
80234;DHT22;69712;42.142;24.766;2023-07-09T15:29:29;32.90;26.20
80234;DHT22;69712;42.142;24.766;2023-07-09T15:31:55;32.90;26.10
80234;DHT22;69712;42.142;24.766;2023-07-09T15:34:21;32.80;26.20
80234;DHT22;69712;42.142;24.766;2023-07-09T15:36:50;32.60;25.90
80234;DHT22;69712;42.142;24.766;2023-07-09T15:39:17;32.70;26.20
80234;DHT22;69712;42.142;24.766;2023-07-09T15:41:43;32.60;27.20
80234;DHT22;69712;42.142;24.766;2023-07-09T15:44:13;32.50;27.80
80234;DHT22;69712;42.142;24.766;2023-07-09T15:46:40;32.20;26.60
80234;DHT22;69712;42.142;24.766;2023-07-09T15:49:11;32.20;26.70
80234;DHT22;69712;42.142;24.766;2023-07-09T15:51:37;32.30;27.60
80234;DHT22;69712;42.142;24.766;2023-07-09T15:54:16;32.40;27.20
80234;DHT22;69712;42.142;24.766;2023-07-09T15:56:43;32.40;27.20
80234;DHT22;69712;42.142;24.766;2023-07-09T15:59:27;32.40;27.40
80234;DHT22;69712;42.142;24.766;2023-07-09T16:01:54;32.00;28.40
80234;DHT22;69712;42.142;24.766;2023-07-09T16:04:20;31.90;28.60
80234;DHT22;69712;42.142;24.766;2023-07-09T16:06:46;31.70;28.10
80234;DHT22;69712;42.142;24.766;2023-07-09T16:09:12;31.70;28.20
80234;DHT22;69712;42.142;24.766;2023-07-09T16:11:41;31.60;28.50
80234;DHT22;69712;42.142;24.766;2023-07-09T16:14:23;31.50;28.60